createdAt,value
2019-03-28T00:00:37.312Z,8.27
2019-03-28T00:02:41.217Z,8.67
2019-03-28T00:04:45.065Z,8.50
2019-03-28T00:06:49.105Z,8.73
2019-03-28T00:08:52.971Z,8.43
2019-03-28T00:10:56.830Z,8.73
2019-03-28T00:13:00.790Z,8.97
2019-03-28T00:15:06.773Z,8.63
2019-03-28T00:17:10.636Z,9.50
2019-03-28T00:19:14.550Z,9.33
2019-03-28T00:21:18.400Z,8.97
2019-03-28T00:23:26.550Z,9.00
2019-03-28T00:25:30.507Z,8.77
2019-03-28T00:27:34.409Z,9.77
2019-03-28T00:29:38.309Z,9.33
2019-03-28T00:31:42.163Z,9.73
2019-03-28T00:33:46.162Z,9.60
2019-03-28T00:35:50.033Z,9.50
2019-03-28T00:37:53.877Z,9.80
2019-03-28T00:39:57.771Z,9.33
2019-03-28T00:42:01.655Z,10.50
2019-03-28T00:44:05.618Z,10.57
2019-03-28T00:46:09.520Z,10.90
2019-03-28T00:48:13.440Z,10.03
2019-03-28T00:50:17.609Z,10.27
2019-03-28T00:52:21.457Z,11.13
2019-03-28T00:54:25.465Z,10.87
2019-03-28T00:56:38.070Z,11.83
2019-03-28T00:58:34.854Z,11.40
2019-03-28T01:00:38.804Z,10.87
2019-03-28T01:02:42.661Z,11.17
2019-03-28T01:04:46.553Z,11.17
2019-03-28T01:06:50.491Z,10.67
2019-03-28T01:08:54.386Z,11.97
2019-03-28T01:10:58.338Z,12.30
2019-03-28T01:13:02.184Z,12.10
2019-03-28T01:15:07.922Z,11.60
2019-03-28T01:17:11.877Z,12.17
2019-03-28T01:19:15.777Z,11.67
2019-03-28T01:21:19.718Z,12.40
2019-03-28T01:23:23.565Z,11.70
2019-03-28T01:25:27.543Z,11.50
2019-03-28T01:27:31.686Z,10.90
2019-03-28T01:29:35.596Z,12.37
2019-03-28T01:31:39.503Z,12.40
2019-03-28T01:33:43.388Z,11.97
2019-03-28T01:35:47.269Z,13.37
2019-03-28T01:37:51.192Z,11.80
2019-03-28T01:39:55.120Z,13.47
2019-03-28T01:41:58.969Z,13.43
2019-03-28T01:44:03.026Z,12.47
2019-03-28T01:46:06.869Z,13.80
2019-03-28T01:48:10.779Z,13.63
2019-03-28T01:50:15.347Z,13.83
2019-03-28T01:52:19.401Z,13.30
2019-03-28T01:54:23.326Z,14.30
2019-03-28T01:56:27.241Z,15.03
2019-03-28T01:58:31.120Z,13.43
2019-03-28T02:00:34.986Z,14.73
2019-03-28T02:02:38.936Z,14.33
2019-03-28T02:04:42.809Z,14.13
2019-03-28T02:06:46.678Z,15.00
2019-03-28T02:08:50.544Z,14.87
2019-03-28T02:10:54.459Z,14.33
2019-03-28T02:12:58.348Z,16.10
2019-03-28T02:15:02.222Z,15.00
2019-03-28T02:17:06.102Z,13.50
2019-03-28T02:19:09.949Z,14.20
2019-03-28T02:21:13.879Z,15.53
2019-03-28T02:23:17.745Z,14.43
2019-03-28T02:25:21.641Z,15.30
2019-03-28T02:27:26.029Z,16.73
2019-03-28T02:29:30.114Z,15.00
2019-03-28T02:31:34.032Z,15.90
2019-03-28T02:33:37.894Z,15.43
2019-03-28T02:35:41.781Z,14.00
2019-03-28T02:37:45.619Z,15.70
2019-03-28T02:39:50.673Z,14.53
2019-03-28T02:41:54.847Z,15.90
2019-03-28T02:43:58.738Z,16.30
2019-03-28T02:46:09.131Z,16.00
2019-03-28T02:48:13.252Z,14.67
2019-03-28T02:50:17.284Z,15.60
2019-03-28T02:52:21.691Z,17.17
2019-03-28T02:54:25.764Z,15.70
2019-03-28T02:56:29.678Z,15.60
2019-03-28T02:58:33.537Z,15.50
2019-03-28T03:00:37.438Z,16.17
2019-03-28T03:02:41.387Z,15.67
2019-03-28T03:04:45.273Z,15.20
2019-03-28T03:06:49.286Z,15.70
2019-03-28T03:08:53.152Z,15.30
2019-03-28T03:10:57.019Z,15.00
2019-03-28T03:13:00.938Z,15.23
2019-03-28T03:15:07.596Z,15.67
2019-03-28T03:17:11.475Z,15.90
2019-03-28T03:19:15.386Z,15.57
2019-03-28T03:21:19.278Z,16.53
2019-03-28T03:23:23.188Z,16.07
2019-03-28T03:25:27.058Z,15.53
2019-03-28T03:27:31.148Z,16.50
2019-03-28T03:29:35.130Z,17.27
2019-03-28T03:31:39.044Z,16.20
2019-03-28T03:33:42.968Z,15.97
2019-03-28T03:35:46.855Z,16.13
2019-03-28T03:37:50.730Z,17.43
2019-03-28T03:39:54.610Z,16.23
2019-03-28T03:41:58.494Z,15.13
2019-03-28T03:44:02.445Z,18.30
2019-03-28T03:46:06.341Z,16.80
2019-03-28T03:48:10.197Z,16.80
2019-03-28T03:50:17.034Z,18.07
2019-03-28T03:52:20.895Z,16.50
2019-03-28T03:54:24.854Z,19.33
2019-03-28T03:56:28.747Z,17.83
2019-03-28T03:58:32.668Z,16.60
2019-03-28T04:00:37.456Z,19.13
2019-03-28T04:02:41.346Z,17.00
2019-03-28T04:04:45.230Z,18.13
2019-03-28T04:06:49.232Z,17.13
2019-03-28T04:08:53.819Z,18.67
2019-03-28T04:10:57.878Z,17.13
2019-03-28T04:13:01.755Z,17.70
2019-03-28T04:15:06.663Z,18.05
2019-03-28T04:17:10.563Z,17.43
2019-03-28T04:19:14.457Z,17.13
2019-03-28T04:21:18.334Z,17.20
2019-03-28T04:23:22.185Z,17.13
2019-03-28T04:25:26.050Z,16.77
2019-03-28T04:27:29.942Z,15.17
2019-03-28T04:29:33.872Z,17.07
2019-03-28T04:31:37.725Z,17.90
2019-03-28T04:33:41.649Z,16.20
2019-03-28T04:35:45.515Z,17.30
2019-03-28T04:37:49.379Z,17.93
2019-03-28T04:39:53.343Z,20.07
2019-03-28T04:41:57.285Z,17.87
2019-03-28T04:44:01.203Z,18.77
2019-03-28T04:46:05.077Z,19.37
2019-03-28T04:48:08.998Z,18.73
2019-03-28T04:50:13.039Z,18.87
2019-03-28T04:52:16.940Z,17.67
2019-03-28T04:54:20.830Z,18.57
2019-03-28T04:56:24.711Z,18.93
2019-03-28T04:58:28.595Z,18.43
2019-03-28T05:00:33.312Z,20.43
2019-03-28T05:02:37.428Z,19.73
2019-03-28T05:04:41.291Z,21.23
2019-03-28T05:06:45.138Z,21.17
2019-03-28T05:08:49.030Z,19.23
2019-03-28T05:10:52.883Z,19.67
2019-03-28T05:12:56.780Z,19.67
2019-03-28T05:15:00.696Z,21.67
2019-03-28T05:17:04.564Z,20.50
2019-03-28T05:19:08.421Z,20.57
2019-03-28T05:21:12.372Z,20.03
2019-03-28T05:23:16.227Z,19.20
2019-03-28T05:25:20.106Z,19.83
2019-03-28T05:27:24.020Z,20.93
2019-03-28T05:29:29.637Z,21.13
2019-03-28T05:31:34.313Z,19.37
2019-03-28T05:33:38.516Z,19.57
2019-03-28T05:35:42.383Z,20.50
2019-03-28T05:37:46.344Z,19.93
2019-03-28T05:39:50.233Z,20.70
2019-03-28T05:41:54.102Z,20.73
2019-03-28T05:43:58.147Z,20.53
2019-03-28T05:46:02.039Z,19.60
2019-03-28T05:48:05.870Z,20.30
2019-03-28T05:50:09.946Z,20.57
2019-03-28T05:52:13.778Z,20.17
2019-03-28T05:54:17.643Z,19.40
2019-03-28T05:56:21.560Z,19.57
2019-03-28T05:58:25.500Z,21.03
2019-03-28T06:00:29.360Z,21.23
2019-03-28T06:02:33.232Z,20.67
2019-03-28T06:04:37.142Z,20.67
2019-03-28T06:06:41.033Z,21.53
2019-03-28T06:08:44.951Z,22.60
2019-03-28T06:10:48.815Z,22.77
2019-03-28T06:12:52.725Z,21.97
2019-03-28T06:14:56.694Z,22.47
2019-03-28T06:17:00.557Z,23.90
2019-03-28T06:19:04.452Z,22.33
2019-03-28T06:21:08.397Z,21.80
2019-03-28T06:23:12.297Z,22.57
2019-03-28T06:25:16.254Z,22.80
2019-03-28T06:27:20.090Z,22.50
2019-03-28T06:29:25.268Z,22.83
2019-03-28T06:31:29.552Z,23.13
2019-03-28T06:33:34.449Z,22.87
2019-03-28T06:35:38.703Z,23.70
2019-03-28T06:37:42.769Z,23.23
2019-03-28T06:39:46.738Z,22.17
2019-03-28T06:41:50.593Z,23.77
2019-03-28T06:43:55.314Z,23.23
2019-03-28T06:45:59.236Z,25.47
2019-03-28T06:48:03.090Z,24.30
2019-03-28T06:50:07.577Z,24.83
2019-03-28T06:52:11.473Z,23.60
2019-03-28T06:54:15.347Z,23.73
2019-03-28T06:56:25.529Z,23.80
2019-03-28T06:58:30.239Z,24.90
2019-03-28T07:00:34.253Z,22.77
2019-03-28T07:02:38.111Z,24.93
2019-03-28T07:04:42.039Z,25.27
2019-03-28T07:06:45.896Z,23.93
2019-03-28T07:08:49.789Z,23.83
2019-03-28T07:10:53.712Z,23.80
2019-03-28T07:12:57.610Z,23.40
2019-03-28T07:15:01.507Z,24.50
2019-03-28T07:17:05.403Z,24.87
2019-03-28T07:19:09.285Z,24.70
2019-03-28T07:21:13.150Z,25.77
2019-03-28T07:23:18.036Z,23.03
2019-03-28T07:25:21.937Z,23.70
2019-03-28T07:27:25.833Z,24.03
2019-03-28T07:29:29.792Z,23.50
2019-03-28T07:31:35.494Z,21.07
2019-03-28T07:33:39.174Z,22.60
2019-03-28T07:35:43.086Z,20.73
2019-03-28T07:37:47.002Z,21.23
2019-03-28T07:39:50.949Z,21.33
2019-03-28T07:41:54.809Z,21.90
2019-03-28T07:43:58.732Z,19.37
2019-03-28T07:46:02.602Z,21.10
2019-03-28T07:48:06.574Z,19.37
2019-03-28T07:50:11.648Z,19.40
2019-03-28T07:52:15.738Z,19.33
2019-03-28T07:54:19.703Z,20.63
2019-03-28T07:56:23.607Z,18.67
2019-03-28T07:58:27.458Z,16.90
2019-03-28T08:00:31.357Z,20.50
2019-03-28T08:02:35.242Z,21.10
2019-03-28T08:04:39.125Z,21.47
2019-03-28T08:06:49.610Z,19.20
2019-03-28T08:08:48.622Z,20.37
2019-03-28T08:10:52.554Z,20.10
2019-03-28T08:12:56.441Z,19.83
2019-03-28T08:15:00.386Z,21.70
2019-03-28T08:17:04.357Z,21.70
2019-03-28T08:19:08.308Z,18.90
2019-03-28T08:21:12.164Z,19.80
2019-03-28T08:23:16.073Z,20.47
2019-03-28T08:25:19.973Z,20.50
2019-03-28T08:27:23.842Z,21.20
2019-03-28T08:29:27.727Z,21.80
2019-03-28T08:31:31.809Z,22.00
2019-03-28T08:33:38.420Z,19.90
2019-03-28T08:35:42.291Z,21.67
2019-03-28T08:37:46.749Z,23.23
2019-03-28T08:39:50.687Z,21.93
2019-03-28T08:41:54.548Z,20.77
2019-03-28T08:43:58.463Z,20.30
2019-03-28T08:46:02.544Z,19.53
2019-03-28T08:48:06.468Z,20.30
2019-03-28T08:50:10.839Z,18.77
2019-03-28T08:52:14.839Z,20.13
2019-03-28T08:54:18.679Z,19.97
2019-03-28T08:56:22.594Z,21.33
2019-03-28T08:58:26.481Z,19.27
2019-03-28T09:00:35.014Z,21.53
2019-03-28T09:02:36.062Z,20.83
2019-03-28T09:04:39.898Z,21.03
2019-03-28T09:06:43.790Z,16.77
2019-03-28T09:08:47.716Z,19.70
2019-03-28T09:10:51.605Z,19.83
2019-03-28T09:12:55.453Z,20.43
2019-03-28T09:14:59.315Z,20.80
2019-03-28T09:17:03.261Z,19.00
2019-03-28T09:19:07.192Z,20.47
2019-03-28T09:21:11.100Z,20.23
2019-03-28T09:23:14.997Z,18.00
2019-03-28T09:25:18.889Z,16.03
2019-03-28T09:27:22.778Z,15.43
2019-03-28T09:29:26.679Z,17.40
2019-03-28T09:31:30.664Z,18.10
2019-03-28T09:33:34.750Z,19.77
2019-03-28T09:35:38.849Z,20.30
2019-03-28T09:37:42.753Z,18.07
2019-03-28T09:39:46.678Z,18.20
2019-03-28T09:41:50.530Z,18.00
2019-03-28T09:43:55.890Z,18.50
2019-03-28T09:46:00.521Z,18.00
2019-03-28T09:48:05.588Z,18.07
2019-03-28T09:50:09.573Z,17.97
2019-03-28T09:52:13.439Z,15.57
2019-03-28T09:54:17.476Z,18.40
2019-03-28T09:56:21.412Z,16.97
2019-03-28T09:58:25.263Z,17.70
2019-03-28T10:00:32.470Z,18.70
2019-03-28T10:02:34.779Z,18.07
2019-03-28T10:04:38.646Z,15.73
2019-03-28T10:06:42.612Z,13.97
2019-03-28T10:08:46.466Z,12.20
2019-03-28T10:10:50.475Z,11.93
2019-03-28T10:12:54.314Z,13.30
2019-03-28T10:14:58.193Z,14.57
2019-03-28T10:17:02.170Z,12.90
2019-03-28T10:19:06.008Z,12.00
2019-03-28T10:21:09.901Z,13.53
2019-03-28T10:23:13.804Z,11.67
2019-03-28T10:25:17.705Z,11.40
2019-03-28T10:27:21.576Z,12.33
2019-03-28T10:29:25.467Z,9.67
2019-03-28T10:31:29.743Z,9.33
2019-03-28T10:33:33.646Z,7.43
2019-03-28T10:35:37.579Z,8.10
2019-03-28T10:37:41.538Z,9.10
2019-03-28T10:39:45.414Z,9.30
2019-03-28T10:41:49.363Z,10.23
2019-03-28T10:43:53.256Z,11.33
2019-03-28T10:45:57.197Z,9.73
2019-03-28T10:48:01.192Z,9.33
2019-03-28T10:50:07.240Z,9.45
2019-03-28T10:52:12.087Z,10.13
2019-03-28T10:54:20.444Z,10.03
2019-03-28T10:56:23.292Z,11.07
2019-03-28T10:58:27.395Z,9.10
2019-03-28T11:00:33.057Z,10.03
2019-03-28T11:02:36.917Z,10.40
2019-03-28T11:04:40.823Z,10.07
2019-03-28T11:06:44.686Z,10.30
2019-03-28T11:08:48.615Z,9.73
2019-03-28T11:10:52.521Z,10.90
2019-03-28T11:12:56.399Z,10.90
2019-03-28T11:15:00.431Z,9.47
2019-03-28T11:17:04.298Z,10.40
2019-03-28T11:19:08.211Z,10.07
2019-03-28T11:21:12.110Z,9.63
2019-03-28T11:23:15.963Z,8.27
2019-03-28T11:25:19.878Z,10.13
2019-03-28T11:27:23.811Z,9.10
2019-03-28T11:29:27.747Z,10.77
2019-03-28T11:31:45.213Z,9.93
2019-03-28T11:33:37.253Z,8.60
2019-03-28T11:35:41.160Z,9.77
2019-03-28T11:37:45.100Z,8.93
2019-03-28T11:39:49.029Z,8.83
2019-03-28T11:41:52.944Z,8.33
2019-03-28T11:43:56.904Z,8.93
2019-03-28T11:46:00.791Z,7.43
2019-03-28T11:48:05.561Z,7.33
2019-03-28T11:50:10.261Z,6.60
2019-03-28T11:52:14.151Z,6.83
2019-03-28T11:54:18.029Z,6.00
2019-03-28T11:56:21.905Z,6.47
2019-03-28T11:58:25.797Z,5.70
2019-03-28T12:00:29.840Z,5.50
2019-03-28T12:02:33.686Z,5.33
2019-03-28T12:04:38.822Z,5.07
2019-03-28T12:06:42.785Z,4.90
2019-03-28T12:08:46.827Z,5.70
2019-03-28T12:10:50.697Z,5.40
2019-03-28T12:12:54.570Z,6.40
2019-03-28T12:14:58.448Z,5.83
2019-03-28T12:17:02.511Z,5.80
2019-03-28T12:19:06.398Z,6.47
2019-03-28T12:21:10.247Z,5.37
2019-03-28T12:23:15.573Z,5.57
2019-03-28T12:25:19.439Z,4.90
2019-03-28T12:27:23.296Z,4.50
2019-03-28T12:29:27.226Z,4.83
2019-03-28T12:31:33.220Z,4.77
2019-03-28T12:33:36.776Z,4.40
2019-03-28T12:35:40.651Z,4.60
2019-03-28T12:37:44.538Z,4.50
2019-03-28T12:39:48.470Z,5.57
2019-03-28T12:41:52.370Z,5.10
2019-03-28T12:43:56.233Z,4.33
2019-03-28T12:46:00.267Z,4.43
2019-03-28T12:48:04.162Z,4.60
2019-03-28T12:50:10.938Z,5.77
2019-03-28T12:52:14.878Z,5.20
2019-03-28T12:54:18.804Z,5.53
2019-03-28T12:56:22.722Z,5.00
2019-03-28T12:58:46.497Z,4.50
2019-03-28T13:00:50.270Z,5.10
2019-03-28T13:02:54.200Z,5.10
2019-03-28T13:04:57.974Z,4.87
2019-03-28T13:07:01.828Z,4.53
2019-03-28T13:09:09.765Z,5.23
2019-03-28T13:11:13.785Z,5.83
2019-03-28T13:13:17.690Z,4.97
2019-03-28T13:15:21.625Z,4.67
2019-03-28T13:17:25.552Z,5.50
2019-03-28T13:19:29.428Z,4.90
2019-03-28T13:21:34.100Z,4.60
2019-03-28T13:23:38.126Z,2.93
2019-03-28T13:25:41.997Z,2.97
2019-03-28T13:27:45.864Z,3.60
2019-03-28T13:29:49.836Z,4.37
2019-03-28T13:31:53.733Z,4.50
2019-03-28T13:33:57.678Z,4.17
2019-03-28T13:36:01.572Z,3.83
2019-03-28T13:38:05.422Z,3.90
2019-03-28T13:40:09.920Z,4.03
2019-03-28T13:42:13.816Z,3.63
2019-03-28T13:44:17.844Z,3.30
2019-03-28T13:46:21.713Z,3.80
2019-03-28T13:48:25.563Z,3.50
2019-03-28T13:50:29.493Z,3.87
2019-03-28T13:52:33.382Z,4.30
2019-03-28T13:54:37.394Z,4.97
2019-03-28T13:56:41.237Z,4.30
2019-03-28T13:58:45.137Z,4.40
2019-03-28T14:00:49.064Z,4.70
2019-03-28T14:02:58.578Z,4.27
2019-03-28T14:04:58.484Z,4.00
2019-03-28T14:07:02.388Z,3.20
2019-03-28T14:09:07.437Z,3.80
2019-03-28T14:11:11.370Z,4.00
2019-03-28T14:13:15.275Z,3.47
2019-03-28T14:15:19.135Z,4.20
2019-03-28T14:17:23.022Z,4.13
2019-03-28T14:19:27.043Z,4.20
2019-03-28T14:21:30.962Z,4.77
2019-03-28T14:23:34.814Z,4.20
2019-03-28T14:25:38.798Z,3.87
2019-03-28T14:27:42.745Z,3.90
2019-03-28T14:29:46.598Z,3.70
2019-03-28T14:31:50.458Z,3.67
2019-03-28T14:33:54.347Z,3.07
2019-03-28T14:35:58.225Z,3.30
2019-03-28T14:38:02.148Z,3.30
2019-03-28T14:40:09.817Z,3.15
2019-03-28T14:42:13.721Z,3.73
2019-03-28T14:44:17.610Z,3.07
2019-03-28T14:46:21.527Z,3.40
2019-03-28T14:48:25.448Z,3.00
2019-03-28T14:50:37.595Z,3.20
2019-03-28T14:52:41.526Z,3.37
2019-03-28T14:54:45.434Z,2.80
2019-03-28T14:56:52.282Z,3.27
2019-03-28T14:58:59.485Z,2.93
2019-03-28T15:01:05.761Z,3.40
2019-03-28T15:03:09.663Z,3.10
2019-03-28T15:05:13.587Z,2.83
2019-03-28T15:07:17.464Z,2.90
2019-03-28T15:09:21.423Z,2.67
2019-03-28T15:11:26.264Z,3.97
2019-03-28T15:13:30.129Z,3.93
2019-03-28T15:15:34.023Z,3.77
2019-03-28T15:17:37.961Z,2.70
2019-03-28T15:19:44.931Z,3.77
2019-03-28T15:21:48.957Z,4.27
2019-03-28T15:23:52.883Z,4.30
2019-03-28T15:25:56.772Z,3.73
2019-03-28T15:28:00.651Z,4.03
2019-03-28T15:30:06.791Z,4.40
2019-03-28T15:32:10.682Z,3.50
2019-03-28T15:34:14.633Z,4.37
2019-03-28T15:36:18.519Z,3.97
2019-03-28T15:38:22.418Z,4.53
2019-03-28T15:40:26.389Z,4.27
2019-03-28T15:42:31.818Z,3.23
2019-03-28T15:44:40.503Z,2.80
2019-03-28T15:46:44.824Z,2.87
2019-03-28T15:48:48.685Z,4.30
2019-03-28T15:50:52.622Z,2.60
2019-03-28T15:52:57.534Z,3.43
2019-03-28T15:55:01.615Z,2.93
2019-03-28T15:57:05.507Z,3.30
2019-03-28T15:59:09.387Z,3.57
2019-03-28T16:01:13.307Z,4.70
2019-03-28T16:03:17.180Z,4.23
2019-03-28T16:05:21.099Z,4.27
2019-03-28T16:07:25.001Z,4.00
2019-03-28T16:09:28.859Z,3.77
2019-03-28T16:11:32.767Z,4.90
2019-03-28T16:13:37.677Z,5.43
2019-03-28T16:15:41.806Z,4.77
2019-03-28T16:17:45.727Z,4.40
2019-03-28T16:19:49.663Z,4.50
2019-03-28T16:21:53.547Z,5.03
2019-03-28T16:23:57.471Z,4.27
2019-03-28T16:26:01.342Z,4.87
2019-03-28T16:28:05.272Z,5.03
2019-03-28T16:30:11.349Z,5.57
2019-03-28T16:32:16.256Z,4.80
2019-03-28T16:34:20.465Z,4.00
2019-03-28T16:36:24.342Z,3.80
2019-03-28T16:38:28.259Z,3.40
2019-03-28T16:40:32.227Z,3.73
2019-03-28T16:42:36.178Z,3.77
2019-03-28T16:44:40.059Z,3.80
2019-03-28T16:46:43.945Z,4.07
2019-03-28T16:48:47.886Z,3.67
2019-03-28T16:50:51.761Z,4.03
2019-03-28T16:52:55.665Z,3.97
2019-03-28T16:54:59.609Z,3.67
2019-03-28T16:57:03.489Z,3.50
2019-03-28T16:59:07.416Z,3.77
2019-03-28T17:01:11.307Z,4.10
2019-03-28T17:03:15.186Z,3.33
2019-03-28T17:05:19.092Z,3.43
2019-03-28T17:07:24.375Z,3.87
2019-03-28T17:09:29.151Z,3.43
2019-03-28T17:11:33.049Z,3.47
2019-03-28T17:13:36.941Z,3.83
2019-03-28T17:15:41.067Z,3.23
2019-03-28T17:17:44.983Z,3.17
2019-03-28T17:19:49.099Z,2.93
2019-03-28T17:21:53.194Z,3.10
2019-03-28T17:23:57.080Z,3.13
2019-03-28T17:26:01.025Z,3.17
2019-03-28T17:28:05.054Z,2.77
2019-03-28T17:30:09.037Z,3.23
2019-03-28T17:32:12.924Z,3.50
2019-03-28T17:34:16.800Z,3.20
2019-03-28T17:36:20.695Z,2.80
2019-03-28T17:38:24.613Z,2.60
2019-03-28T17:40:28.505Z,3.03
2019-03-28T17:42:32.436Z,2.87
2019-03-28T17:44:36.318Z,2.20
2019-03-28T17:46:40.196Z,2.40
2019-03-28T17:48:44.140Z,2.47
2019-03-28T17:50:48.025Z,2.80
2019-03-28T17:52:51.933Z,2.80
2019-03-28T17:54:55.822Z,2.70
2019-03-28T17:56:59.693Z,2.67
2019-03-28T17:59:03.622Z,2.27
2019-03-28T18:01:07.683Z,2.33
2019-03-28T18:03:11.562Z,2.50
2019-03-28T18:05:15.958Z,3.33
2019-03-28T18:07:20.062Z,2.97
2019-03-28T18:09:23.973Z,2.63
2019-03-28T18:11:27.850Z,2.20
2019-03-28T18:13:31.725Z,2.43
2019-03-28T18:15:35.664Z,2.50
2019-03-28T18:17:39.709Z,3.07
2019-03-28T18:19:43.626Z,3.13
2019-03-28T18:21:47.526Z,3.03
2019-03-28T18:23:51.422Z,2.87
2019-03-28T18:25:55.294Z,3.20
2019-03-28T18:27:59.230Z,2.70
2019-03-28T18:30:05.349Z,2.60
2019-03-28T18:32:08.928Z,2.33
2019-03-28T18:34:12.835Z,2.00
2019-03-28T18:36:16.750Z,3.07
2019-03-28T18:38:20.646Z,2.40
2019-03-28T18:40:24.539Z,2.40
2019-03-28T18:42:28.409Z,2.77
2019-03-28T18:44:32.331Z,2.97
2019-03-28T18:46:36.225Z,2.40
2019-03-28T18:48:40.139Z,2.40
2019-03-28T18:50:44.034Z,2.00
2019-03-28T18:52:47.922Z,2.40
2019-03-28T18:54:51.834Z,2.40
2019-03-28T18:56:55.712Z,2.90
2019-03-28T18:58:59.695Z,2.17
2019-03-28T19:01:03.635Z,3.20
2019-03-28T19:03:07.563Z,2.20
2019-03-28T19:05:19.752Z,2.90
2019-03-28T19:07:17.147Z,2.40
2019-03-28T19:09:21.063Z,2.87
2019-03-28T19:11:24.937Z,2.47
2019-03-28T19:13:28.842Z,2.47
2019-03-28T19:15:32.763Z,2.30
2019-03-28T19:17:37.087Z,2.20
2019-03-28T19:19:41.016Z,2.63
2019-03-28T19:21:44.989Z,2.43
2019-03-28T19:23:48.873Z,2.87
2019-03-28T19:25:52.775Z,2.73
2019-03-28T19:27:56.636Z,2.40
2019-03-28T19:30:00.542Z,2.73
2019-03-28T19:32:04.557Z,2.40
2019-03-28T19:34:08.433Z,2.83
2019-03-28T19:36:12.861Z,2.83
2019-03-28T19:38:17.334Z,2.60
2019-03-28T19:40:21.206Z,3.50
2019-03-28T19:42:25.136Z,3.63
2019-03-28T19:44:31.292Z,3.40
2019-03-28T19:46:38.598Z,3.00
2019-03-28T19:48:48.522Z,3.30
2019-03-28T19:50:52.951Z,3.70
2019-03-28T19:52:56.868Z,4.43
2019-03-28T19:55:05.442Z,2.90
2019-03-28T19:57:17.695Z,3.80
2019-03-28T19:59:29.292Z,3.60
2019-03-28T20:01:35.762Z,3.23
2019-03-28T20:03:40.790Z,3.43
2019-03-28T20:05:51.854Z,3.03
2019-03-28T20:08:14.461Z,2.83
2019-03-28T20:10:16.598Z,3.53
2019-03-28T20:12:25.956Z,3.20
2019-03-28T20:14:34.747Z,3.53
2019-03-28T20:16:44.508Z,3.20
2019-03-28T20:18:50.508Z,3.00
2019-03-28T20:21:01.590Z,3.17
2019-03-28T20:23:08.847Z,4.13
2019-03-28T20:25:15.286Z,4.57
2019-03-28T20:27:23.773Z,3.53
2019-03-28T20:29:33.374Z,3.67
2019-03-28T20:31:37.577Z,3.97
2019-03-28T20:33:48.555Z,3.53
2019-03-28T20:36:11.693Z,4.10
2019-03-28T20:38:07.688Z,3.73
2019-03-28T20:40:14.757Z,3.70
2019-03-28T20:42:23.150Z,4.17
2019-03-28T20:44:33.090Z,3.50
2019-03-28T20:46:40.868Z,2.73
2019-03-28T20:48:50.058Z,3.70
2019-03-28T20:50:57.867Z,4.83
2019-03-28T20:53:02.450Z,4.40
2019-03-28T20:55:12.998Z,3.33
2019-03-28T20:57:23.443Z,4.07
2019-03-28T20:59:31.232Z,5.50
2019-03-28T21:01:42.368Z,4.40
2019-03-28T21:03:51.661Z,3.43
2019-03-28T21:06:14.543Z,4.10
2019-03-28T21:08:13.937Z,3.70
2019-03-28T21:10:33.440Z,4.90
2019-03-28T21:12:40.146Z,5.50
2019-03-28T21:14:51.531Z,6.70
2019-03-28T21:16:58.135Z,4.97
2019-03-28T21:19:01.302Z,4.97
2019-03-28T21:21:08.071Z,5.53
2019-03-28T21:23:17.358Z,5.47
2019-03-28T21:25:29.305Z,4.43
2019-03-28T21:27:38.076Z,4.37
2019-03-28T21:29:49.357Z,4.43
2019-03-28T21:31:57.373Z,4.50
2019-03-28T21:34:08.002Z,4.47
2019-03-28T21:36:29.154Z,4.80
2019-03-28T21:38:24.176Z,3.80
2019-03-28T21:40:35.264Z,3.40
2019-03-28T21:42:45.151Z,3.93
2019-03-28T21:44:51.504Z,4.03
2019-03-28T21:47:02.203Z,4.40
2019-03-28T21:49:11.895Z,4.27
2019-03-28T21:51:18.214Z,4.13
2019-03-28T21:53:29.065Z,4.27
2019-03-28T21:55:54.012Z,3.80
2019-03-28T21:57:52.305Z,4.53
2019-03-28T21:59:58.159Z,5.33
2019-03-28T22:02:04.892Z,3.57
2019-03-28T22:04:12.888Z,3.37
2019-03-28T22:06:19.083Z,4.43
2019-03-28T22:08:24.677Z,4.40
2019-03-28T22:10:28.574Z,3.90
2019-03-28T22:12:33.270Z,4.70
2019-03-28T22:14:37.194Z,4.27
2019-03-28T22:16:41.131Z,5.03
2019-03-28T22:18:45.027Z,4.90
2019-03-28T22:20:48.914Z,4.33
2019-03-28T22:22:52.797Z,5.17
2019-03-28T22:24:56.722Z,5.07
2019-03-28T22:27:00.616Z,5.50
2019-03-28T22:29:04.488Z,5.23
2019-03-28T22:31:08.415Z,4.30
2019-03-28T22:33:12.303Z,4.27
2019-03-28T22:35:16.215Z,4.20
2019-03-28T22:37:20.129Z,5.13
2019-03-28T22:39:24.020Z,5.23
2019-03-28T22:41:27.944Z,4.73
2019-03-28T22:43:33.047Z,6.03
2019-03-28T22:45:37.206Z,5.80
2019-03-28T22:47:41.123Z,7.00
2019-03-28T22:49:45.001Z,7.13
2019-03-28T22:51:48.936Z,6.07
2019-03-28T22:53:52.834Z,6.13
2019-03-28T22:55:56.714Z,6.63
2019-03-28T22:58:00.614Z,5.90
2019-03-28T23:00:07.502Z,5.77
2019-03-28T23:02:12.724Z,6.37
2019-03-28T23:04:16.627Z,6.40
2019-03-28T23:06:20.542Z,6.93
2019-03-28T23:08:24.422Z,7.87
2019-03-28T23:10:28.334Z,7.00
2019-03-28T23:12:32.251Z,7.13
2019-03-28T23:14:36.717Z,6.60
2019-03-28T23:16:40.935Z,7.97
2019-03-28T23:18:45.456Z,5.60
2019-03-28T23:20:51.719Z,8.00
2019-03-28T23:22:55.942Z,7.97
2019-03-28T23:24:59.878Z,7.40
2019-03-28T23:27:03.768Z,7.57
2019-03-28T23:29:07.670Z,7.33
2019-03-28T23:31:11.625Z,8.03
2019-03-28T23:33:16.710Z,7.03
2019-03-28T23:35:21.137Z,8.67
2019-03-28T23:37:26.109Z,8.73
2019-03-28T23:39:30.699Z,8.00
2019-03-28T23:41:34.663Z,8.03
2019-03-28T23:43:38.547Z,9.57
2019-03-28T23:45:45.148Z,7.90
2019-03-28T23:47:50.719Z,9.27
2019-03-28T23:49:54.631Z,7.50
2019-03-28T23:51:58.562Z,8.80
2019-03-28T23:54:02.853Z,7.43
2019-03-28T23:56:06.738Z,7.50
2019-03-28T23:58:10.688Z,8.30
